createdAt,value
2022-10-30T00:00:42.876Z,19.38
2022-10-30T00:03:14.046Z,20.35
2022-10-30T00:05:45.860Z,19.25
2022-10-30T00:08:13.797Z,20.13
2022-10-30T00:10:41.413Z,19.13
2022-10-30T00:13:09.417Z,18.23
2022-10-30T00:15:36.934Z,16.95
2022-10-30T00:18:04.295Z,17.85
2022-10-30T00:20:31.558Z,16.52
2022-10-30T00:22:59.246Z,16.37
2022-10-30T00:25:27.025Z,16.08
2022-10-30T00:27:54.591Z,16.73
2022-10-30T00:30:21.914Z,15.98
2022-10-30T00:32:49.438Z,16.50
2022-10-30T00:35:16.996Z,16.37
2022-10-30T00:37:44.811Z,16.83
2022-10-30T00:40:16.352Z,16.73
2022-10-30T00:42:44.276Z,16.90
2022-10-30T00:45:16.117Z,16.75
2022-10-30T00:47:58.084Z,18.07
2022-10-30T00:50:31.580Z,18.05
2022-10-30T00:53:05.136Z,17.83
2022-10-30T00:55:34.613Z,17.63
2022-10-30T00:58:03.108Z,18.35
2022-10-30T01:00:30.361Z,17.50
2022-10-30T01:02:57.968Z,17.30
2022-10-30T01:05:25.812Z,17.55
2022-10-30T01:07:53.196Z,16.70
2022-10-30T01:10:20.500Z,17.52
2022-10-30T01:12:47.891Z,16.93
2022-10-30T01:15:15.617Z,16.95
2022-10-30T01:18:03.356Z,18.58
2022-10-30T01:20:56.937Z,17.52
2022-10-30T01:24:00.096Z,17.73
2022-10-30T01:26:54.676Z,16.27
2022-10-30T01:29:27.609Z,16.73
2022-10-30T01:32:07.053Z,17.58
2022-10-30T01:34:47.844Z,18.05
2022-10-30T01:37:29.058Z,18.38
2022-10-30T01:39:56.628Z,19.07
2022-10-30T01:42:39.117Z,18.15
2022-10-30T01:45:06.928Z,15.85
2022-10-30T01:48:09.458Z,17.35
2022-10-30T01:50:46.159Z,16.38
2022-10-30T01:53:26.871Z,16.33
2022-10-30T01:56:15.249Z,15.50
2022-10-30T01:59:03.481Z,15.38
2022-10-30T02:01:33.414Z,15.70
2022-10-30T02:04:01.208Z,16.65
2022-10-30T02:06:28.638Z,16.43
2022-10-30T02:08:56.927Z,14.38
2022-10-30T02:11:25.301Z,15.38
2022-10-30T02:13:53.188Z,15.05
2022-10-30T02:16:20.552Z,14.80
2022-10-30T02:18:47.910Z,15.43
2022-10-30T02:21:15.245Z,15.23
2022-10-30T02:23:43.872Z,14.35
2022-10-30T02:26:11.111Z,13.63
2022-10-30T02:28:38.486Z,14.45
2022-10-30T02:31:06.716Z,15.17
2022-10-30T02:33:34.239Z,14.55
2022-10-30T02:36:01.516Z,15.63
2022-10-30T02:38:28.850Z,15.68
2022-10-30T02:40:58.106Z,15.55
2022-10-30T02:43:25.690Z,17.13
2022-10-30T02:45:52.953Z,14.73
2022-10-30T02:48:21.351Z,15.05
2022-10-30T02:50:49.316Z,15.25
2022-10-30T02:53:17.221Z,13.75
2022-10-30T02:55:46.077Z,14.10
2022-10-30T02:58:13.497Z,14.20
2022-10-30T03:00:40.705Z,14.93
2022-10-30T03:03:07.987Z,14.85
2022-10-30T03:05:35.425Z,16.30
2022-10-30T03:08:02.917Z,15.40
2022-10-30T03:10:30.795Z,15.75
2022-10-30T03:12:59.564Z,15.02
2022-10-30T03:15:26.759Z,15.00
2022-10-30T03:17:54.323Z,15.13
2022-10-30T03:20:21.998Z,14.60
2022-10-30T03:22:49.901Z,14.68
2022-10-30T03:25:23.818Z,15.95
2022-10-30T03:27:55.519Z,14.75
2022-10-30T03:30:23.146Z,14.88
2022-10-30T03:32:50.450Z,15.17
2022-10-30T03:35:17.752Z,14.70
2022-10-30T03:37:44.960Z,14.32
2022-10-30T03:40:12.463Z,14.45
2022-10-30T03:42:41.363Z,15.02
2022-10-30T03:45:09.609Z,15.63
2022-10-30T03:47:40.130Z,14.27
2022-10-30T03:50:09.527Z,14.02
2022-10-30T03:52:36.774Z,14.32
2022-10-30T03:55:04.626Z,13.32
2022-10-30T03:57:31.838Z,14.07
2022-10-30T04:00:09.187Z,14.23
2022-10-30T04:02:48.570Z,15.95
2022-10-30T04:05:19.175Z,13.40
2022-10-30T04:07:47.522Z,14.20
2022-10-30T04:10:20.891Z,13.63
2022-10-30T04:12:53.095Z,15.15
2022-10-30T04:15:20.555Z,13.60
2022-10-30T04:17:52.014Z,13.18
2022-10-30T04:20:19.898Z,14.57
2022-10-30T04:22:47.792Z,12.97
2022-10-30T04:25:20.169Z,13.38
2022-10-30T04:27:50.358Z,13.20
2022-10-30T04:30:20.190Z,14.27
2022-10-30T04:32:52.739Z,13.23
2022-10-30T04:35:21.070Z,12.87
2022-10-30T04:37:58.962Z,13.57
2022-10-30T04:40:29.423Z,13.18
2022-10-30T04:43:01.014Z,14.40
2022-10-30T04:45:28.878Z,13.13
2022-10-30T04:48:06.682Z,14.17
2022-10-30T04:50:34.213Z,14.07
2022-10-30T04:53:06.584Z,15.32
2022-10-30T04:55:34.032Z,14.93
2022-10-30T04:58:03.191Z,13.68
2022-10-30T05:00:33.555Z,13.17
2022-10-30T05:03:15.821Z,11.43
2022-10-30T05:05:43.342Z,10.18
2022-10-30T05:08:10.541Z,10.73
2022-10-30T05:10:41.425Z,11.40
2022-10-30T05:13:11.077Z,11.53
2022-10-30T05:15:38.749Z,11.95
2022-10-30T05:18:06.463Z,11.40
2022-10-30T05:20:33.837Z,11.68
2022-10-30T05:23:01.138Z,10.73
2022-10-30T05:25:28.541Z,11.07
2022-10-30T05:28:03.656Z,12.05
2022-10-30T05:30:35.699Z,11.98
2022-10-30T05:33:07.553Z,12.02
2022-10-30T05:35:35.474Z,12.02
2022-10-30T05:38:05.743Z,13.20
2022-10-30T05:40:34.415Z,11.77
2022-10-30T05:43:02.107Z,11.88
2022-10-30T05:45:30.466Z,12.43
2022-10-30T05:48:04.251Z,13.15
2022-10-30T05:50:35.952Z,13.33
2022-10-30T05:53:20.928Z,12.32
2022-10-30T05:55:48.348Z,12.60
2022-10-30T05:58:21.540Z,12.07
2022-10-30T06:00:49.808Z,12.48
2022-10-30T06:03:27.538Z,12.67
2022-10-30T06:05:55.968Z,11.88
2022-10-30T06:08:23.782Z,12.23
2022-10-30T06:10:56.027Z,12.85
2022-10-30T06:13:28.038Z,11.95
2022-10-30T06:16:01.684Z,13.30
2022-10-30T06:18:58.477Z,12.25
2022-10-30T06:21:27.199Z,13.10
2022-10-30T06:24:14.082Z,13.50
2022-10-30T06:27:04.756Z,13.70
2022-10-30T06:29:32.090Z,13.87
2022-10-30T06:32:02.226Z,13.95
2022-10-30T06:34:33.323Z,15.65
2022-10-30T06:37:00.981Z,13.95
2022-10-30T06:39:28.396Z,15.02
2022-10-30T06:42:34.324Z,15.10
2022-10-30T06:45:07.209Z,15.75
2022-10-30T06:47:36.169Z,13.88
2022-10-30T06:50:05.136Z,14.60
2022-10-30T06:52:32.665Z,14.05
2022-10-30T06:55:00.544Z,14.60
2022-10-30T06:57:55.100Z,13.90
2022-10-30T07:00:37.980Z,13.82
2022-10-30T07:03:13.965Z,14.55
2022-10-30T07:05:41.962Z,13.68
2022-10-30T07:08:09.421Z,14.40
2022-10-30T07:10:37.190Z,13.98
2022-10-30T07:13:21.643Z,14.30
2022-10-30T07:16:15.029Z,14.35
2022-10-30T07:18:45.131Z,14.45
2022-10-30T07:21:12.719Z,12.80
2022-10-30T07:23:41.085Z,13.25
2022-10-30T07:26:24.137Z,13.88
2022-10-30T07:28:53.824Z,12.65
2022-10-30T07:31:41.363Z,11.98
2022-10-30T07:34:28.646Z,12.80
2022-10-30T07:37:25.211Z,13.27
2022-10-30T07:40:13.389Z,13.63
2022-10-30T07:43:00.559Z,13.20
2022-10-30T07:45:31.149Z,13.70
2022-10-30T07:48:21.343Z,11.50
2022-10-30T07:51:15.632Z,12.00
2022-10-30T07:53:43.340Z,13.82
2022-10-30T07:56:10.893Z,12.48
2022-10-30T07:58:53.729Z,11.77
2022-10-30T08:01:50.258Z,11.90
2022-10-30T08:04:32.504Z,11.20
2022-10-30T08:07:09.383Z,11.38
2022-10-30T08:09:36.703Z,11.15
2022-10-30T08:12:04.249Z,12.43
2022-10-30T08:14:31.871Z,10.87
2022-10-30T08:16:59.290Z,11.25
2022-10-30T08:19:26.978Z,11.07
2022-10-30T08:21:57.644Z,11.15
2022-10-30T08:24:27.779Z,10.52
2022-10-30T08:26:58.649Z,10.73
2022-10-30T08:29:27.501Z,10.32
2022-10-30T08:31:55.189Z,9.93
2022-10-30T08:34:22.669Z,9.88
2022-10-30T08:36:54.462Z,10.05
2022-10-30T08:39:21.760Z,11.00
2022-10-30T08:42:01.456Z,10.57
2022-10-30T08:44:34.634Z,11.20
2022-10-30T08:47:20.600Z,10.85
2022-10-30T08:49:48.285Z,10.10
2022-10-30T08:52:19.175Z,11.53
2022-10-30T08:54:50.756Z,10.45
2022-10-30T08:57:18.110Z,10.27
2022-10-30T08:59:45.435Z,10.35
2022-10-30T09:02:32.182Z,10.40
2022-10-30T09:05:20.222Z,10.53
2022-10-30T09:08:10.315Z,10.80
2022-10-30T09:10:59.738Z,10.73
2022-10-30T09:13:27.143Z,10.18
2022-10-30T09:15:56.223Z,10.60
2022-10-30T09:18:23.958Z,11.03
2022-10-30T09:20:51.443Z,12.38
2022-10-30T09:23:19.271Z,12.75
2022-10-30T09:25:51.112Z,12.00
2022-10-30T09:28:29.916Z,13.00
2022-10-30T09:31:15.664Z,13.97
2022-10-30T09:33:43.136Z,12.95
2022-10-30T09:36:29.130Z,13.63
2022-10-30T09:38:56.650Z,14.30
2022-10-30T09:41:26.942Z,14.07
2022-10-30T09:44:14.413Z,14.30
2022-10-30T09:47:00.515Z,15.02
2022-10-30T09:49:53.702Z,14.57
2022-10-30T09:52:45.687Z,15.65
2022-10-30T09:55:16.397Z,15.85
2022-10-30T09:57:48.789Z,14.93
2022-10-30T10:00:20.757Z,13.85
2022-10-30T10:03:07.638Z,15.35
2022-10-30T10:05:53.613Z,15.52
2022-10-30T10:08:32.649Z,15.93
2022-10-30T10:11:23.409Z,16.57
2022-10-30T10:13:59.008Z,15.80
2022-10-30T10:16:35.507Z,16.63
2022-10-30T10:19:21.101Z,15.48
2022-10-30T10:21:56.163Z,15.77
2022-10-30T10:24:27.972Z,15.80
2022-10-30T10:27:08.784Z,18.05
2022-10-30T10:29:48.068Z,16.35
2022-10-30T10:32:21.335Z,16.90
2022-10-30T10:35:03.111Z,16.42
2022-10-30T10:37:39.545Z,16.53
2022-10-30T10:40:39.705Z,17.17
2022-10-30T10:43:22.151Z,17.00
2022-10-30T10:45:55.328Z,18.38
2022-10-30T10:49:02.455Z,18.23
2022-10-30T10:51:33.608Z,18.53
2022-10-30T10:54:03.193Z,18.15
2022-10-30T10:56:38.779Z,18.88
2022-10-30T10:59:14.340Z,18.45
2022-10-30T11:01:44.765Z,17.88
2022-10-30T11:04:38.616Z,17.40
2022-10-30T11:07:23.988Z,17.02
2022-10-30T11:09:55.124Z,17.27
2022-10-30T11:12:28.555Z,17.40
2022-10-30T11:14:59.734Z,16.95
2022-10-30T11:17:38.942Z,16.37
2022-10-30T11:20:14.970Z,16.35
2022-10-30T11:22:44.496Z,17.55
2022-10-30T11:25:28.607Z,17.77
2022-10-30T11:28:00.542Z,17.30
2022-10-30T11:30:28.834Z,17.73
2022-10-30T11:32:57.313Z,17.65
2022-10-30T11:35:25.290Z,19.20
2022-10-30T11:38:14.067Z,18.75
2022-10-30T11:40:48.400Z,17.52
2022-10-30T11:43:17.669Z,18.43
2022-10-30T11:45:45.529Z,18.10
2022-10-30T11:48:30.334Z,17.75
2022-10-30T11:51:01.517Z,18.38
2022-10-30T11:53:39.386Z,17.35
2022-10-30T11:56:20.284Z,17.93
2022-10-30T11:58:55.480Z,18.27
2022-10-30T12:01:25.939Z,19.65
2022-10-30T12:03:54.067Z,20.05
2022-10-30T12:06:28.258Z,20.88
2022-10-30T12:09:04.589Z,19.00
2022-10-30T12:11:33.644Z,17.15
2022-10-30T12:14:00.988Z,17.63
2022-10-30T12:16:28.359Z,17.00
2022-10-30T12:19:09.740Z,19.17
2022-10-30T12:21:39.323Z,17.83
2022-10-30T12:24:09.574Z,19.35
2022-10-30T12:26:36.984Z,18.63
2022-10-30T12:29:06.681Z,17.90
2022-10-30T12:31:44.308Z,18.08
2022-10-30T12:34:37.813Z,19.13
2022-10-30T12:37:06.974Z,17.73
2022-10-30T12:39:53.310Z,19.50
2022-10-30T12:42:23.349Z,18.38
2022-10-30T12:45:13.286Z,18.83
2022-10-30T12:48:06.514Z,17.30
2022-10-30T12:50:44.262Z,17.35
2022-10-30T12:53:30.463Z,20.40
2022-10-30T12:56:02.665Z,19.77
2022-10-30T12:58:42.373Z,20.08
2022-10-30T13:01:47.449Z,20.53
2022-10-30T13:04:26.971Z,20.35
2022-10-30T13:07:05.186Z,19.20
2022-10-30T13:10:10.686Z,20.33
2022-10-30T13:12:41.966Z,19.27
2022-10-30T13:15:16.856Z,19.23
2022-10-30T13:17:44.121Z,20.30
2022-10-30T13:20:12.905Z,20.20
2022-10-30T13:22:50.208Z,23.50
2022-10-30T13:25:25.063Z,20.65
2022-10-30T13:27:53.878Z,22.93
2022-10-30T13:30:21.764Z,21.33
2022-10-30T13:33:20.468Z,21.80
2022-10-30T13:36:08.069Z,20.67
2022-10-30T13:38:38.402Z,20.90
2022-10-30T13:41:14.594Z,20.83
2022-10-30T13:44:04.610Z,23.25
2022-10-30T13:46:35.089Z,26.50
2022-10-30T13:49:25.655Z,24.15
2022-10-30T13:52:14.666Z,26.95
2022-10-30T13:55:02.885Z,29.70
2022-10-30T13:58:02.550Z,28.10
2022-10-30T14:00:48.518Z,25.85
2022-10-30T14:03:34.575Z,23.98
2022-10-30T14:06:04.953Z,24.30
2022-10-30T14:08:53.133Z,26.20
2022-10-30T14:11:20.492Z,22.85
2022-10-30T14:13:58.402Z,21.65
2022-10-30T14:16:33.329Z,22.20
2022-10-30T14:19:07.124Z,20.83
2022-10-30T14:21:53.395Z,20.60
2022-10-30T14:27:03.577Z,21.55
2022-10-30T14:29:36.730Z,23.48
2022-10-30T14:32:16.077Z,24.27
2022-10-30T14:34:44.057Z,23.73
2022-10-30T14:37:12.387Z,23.02
2022-10-30T14:39:40.840Z,22.23
2022-10-30T14:42:36.683Z,21.90
2022-10-30T14:45:14.788Z,22.33
2022-10-30T14:47:47.063Z,22.37
2022-10-30T14:50:19.396Z,21.88
2022-10-30T14:52:49.787Z,27.20
2022-10-30T14:55:26.498Z,26.45
2022-10-30T14:58:02.634Z,23.80
2022-10-30T15:00:38.123Z,24.80
2022-10-30T15:03:44.296Z,24.10
2022-10-30T15:06:22.387Z,22.90
2022-10-30T15:08:55.404Z,23.17
2022-10-30T15:11:27.201Z,22.95
2022-10-30T15:14:16.240Z,23.53
2022-10-30T15:16:49.694Z,26.45
2022-10-30T15:19:17.010Z,27.90
2022-10-30T15:21:46.364Z,28.77
2022-10-30T15:24:16.371Z,29.88
2022-10-30T15:26:46.780Z,29.20
2022-10-30T15:29:19.010Z,26.35
2022-10-30T15:31:46.380Z,28.17
2022-10-30T15:34:23.131Z,26.33
2022-10-30T15:36:50.461Z,22.58
2022-10-30T15:39:21.952Z,24.93
2022-10-30T15:41:54.468Z,26.27
2022-10-30T15:44:23.744Z,23.52
2022-10-30T15:46:52.630Z,22.65
2022-10-30T15:49:36.776Z,22.63
2022-10-30T15:52:28.234Z,21.80
2022-10-30T15:55:01.055Z,20.73
2022-10-30T16:00:25.677Z,23.65
2022-10-30T16:03:01.456Z,23.15
2022-10-30T16:05:29.511Z,22.63
2022-10-30T16:07:58.352Z,21.90
2022-10-30T16:10:27.480Z,23.35
2022-10-30T16:12:57.380Z,20.98
2022-10-30T16:15:33.120Z,20.30
2022-10-30T16:18:27.598Z,16.13
2022-10-30T16:20:58.015Z,16.05
2022-10-30T16:23:25.319Z,20.92
2022-10-30T16:25:56.826Z,19.73
2022-10-30T16:28:34.736Z,19.70
2022-10-30T16:31:06.657Z,20.33
2022-10-30T16:33:34.691Z,18.67
2022-10-30T16:36:05.332Z,19.75
2022-10-30T16:38:37.046Z,19.20
2022-10-30T16:41:08.072Z,20.92
2022-10-30T16:43:35.843Z,20.27
2022-10-30T16:46:15.182Z,20.13
2022-10-30T16:48:48.274Z,20.60
2022-10-30T16:51:16.674Z,19.30
2022-10-30T16:53:50.850Z,21.33
2022-10-30T16:56:37.922Z,21.23
2022-10-30T16:59:47.908Z,20.77
2022-10-30T17:02:28.425Z,20.30
2022-10-30T17:04:59.278Z,22.88
2022-10-30T17:07:26.807Z,23.63
2022-10-30T17:09:55.830Z,20.33
2022-10-30T17:12:24.677Z,18.25
2022-10-30T17:15:07.337Z,19.42
2022-10-30T17:17:36.388Z,18.77
2022-10-30T17:20:30.910Z,21.45
2022-10-30T17:23:17.978Z,22.20
2022-10-30T17:25:45.397Z,21.40
2022-10-30T17:28:35.890Z,21.42
2022-10-30T17:31:18.516Z,19.67
2022-10-30T17:33:46.551Z,20.45
2022-10-30T17:36:13.919Z,21.83
2022-10-30T17:38:41.245Z,20.40
2022-10-30T17:41:12.688Z,21.48
2022-10-30T17:43:53.505Z,20.30
2022-10-30T17:46:20.980Z,18.30
2022-10-30T17:48:48.407Z,18.20
2022-10-30T17:51:16.202Z,19.38
2022-10-30T17:53:43.788Z,20.25
2022-10-30T17:56:15.980Z,22.02
2022-10-30T17:58:43.563Z,22.00
2022-10-30T18:01:16.460Z,20.10
2022-10-30T18:03:43.890Z,18.83
2022-10-30T18:06:19.468Z,18.83
2022-10-30T18:08:50.554Z,20.08
2022-10-30T18:11:20.138Z,21.60
2022-10-30T18:13:47.839Z,17.67
2022-10-30T18:16:16.090Z,17.20
2022-10-30T18:18:44.283Z,16.65
2022-10-30T18:21:16.591Z,18.05
2022-10-30T18:23:52.413Z,15.00
2022-10-30T18:26:22.257Z,17.67
2022-10-30T18:28:49.818Z,17.67
2022-10-30T18:31:18.811Z,18.48
2022-10-30T18:33:46.404Z,19.60
2022-10-30T18:36:17.784Z,16.88
2022-10-30T18:38:45.036Z,16.10
2022-10-30T18:41:17.151Z,16.02
2022-10-30T18:43:46.891Z,15.63
2022-10-30T18:46:15.101Z,16.38
2022-10-30T18:48:42.773Z,15.88
2022-10-30T18:51:17.420Z,13.67
2022-10-30T18:53:52.136Z,13.73
2022-10-30T18:56:20.905Z,12.45
2022-10-30T18:58:48.730Z,12.63
2022-10-30T19:01:16.627Z,14.10
2022-10-30T19:03:44.694Z,15.47
2022-10-30T19:06:20.390Z,13.57
2022-10-30T19:08:47.872Z,15.35
2022-10-30T19:11:20.129Z,16.92
2022-10-30T19:13:51.670Z,14.85
2022-10-30T19:16:19.308Z,17.07
2022-10-30T19:18:47.429Z,14.13
2022-10-30T19:21:19.130Z,14.65
2022-10-30T19:23:46.970Z,13.50
2022-10-30T19:26:15.223Z,13.65
2022-10-30T19:28:42.770Z,15.20
2022-10-30T19:31:16.183Z,14.43
2022-10-30T19:33:43.755Z,14.75
2022-10-30T19:36:36.367Z,14.65
2022-10-30T19:39:14.197Z,15.38
2022-10-30T19:41:41.635Z,14.43
2022-10-30T19:44:09.028Z,14.13
2022-10-30T19:46:36.601Z,16.75
2022-10-30T19:49:17.905Z,14.73
2022-10-30T19:51:45.314Z,14.68
2022-10-30T19:54:12.728Z,12.90
2022-10-30T19:56:42.313Z,14.93
2022-10-30T19:59:10.376Z,14.35
2022-10-30T20:01:37.965Z,13.27
2022-10-30T20:04:05.336Z,12.88
2022-10-30T20:06:32.651Z,13.83
2022-10-30T20:09:02.645Z,14.55
2022-10-30T20:11:30.288Z,14.43
2022-10-30T20:13:58.022Z,14.20
2022-10-30T20:16:25.355Z,14.82
2022-10-30T20:18:53.462Z,14.80
2022-10-30T20:21:20.993Z,14.65
2022-10-30T20:23:48.294Z,16.55
2022-10-30T20:26:26.934Z,17.05
2022-10-30T20:28:54.264Z,15.82
2022-10-30T20:31:21.636Z,16.83
2022-10-30T20:33:49.643Z,16.75
2022-10-30T20:36:17.053Z,16.70
2022-10-30T20:38:44.752Z,18.55
2022-10-30T20:41:22.889Z,20.85
2022-10-30T20:43:50.939Z,18.23
2022-10-30T20:46:18.419Z,17.77
2022-10-30T20:48:45.817Z,19.15
2022-10-30T20:51:13.062Z,17.00
2022-10-30T20:53:40.489Z,17.42
2022-10-30T20:56:07.864Z,16.70
2022-10-30T20:58:35.470Z,15.88
2022-10-30T21:01:02.917Z,15.98
2022-10-30T21:03:30.217Z,17.00
2022-10-30T21:05:59.938Z,16.80
2022-10-30T21:08:28.015Z,18.00
2022-10-30T21:10:59.982Z,18.25
2022-10-30T21:13:28.395Z,17.77
2022-10-30T21:15:59.592Z,17.48
2022-10-30T21:18:26.940Z,17.95
2022-10-30T21:20:54.421Z,17.47
2022-10-30T21:23:21.670Z,14.77
2022-10-30T21:25:49.022Z,15.48
2022-10-30T21:28:16.377Z,16.63
2022-10-30T21:30:43.631Z,14.55
2022-10-30T21:33:11.017Z,15.00
2022-10-30T21:35:38.235Z,14.23
2022-10-30T21:38:05.766Z,16.05
2022-10-30T21:40:33.168Z,14.02
2022-10-30T21:43:04.130Z,13.23
2022-10-30T21:45:32.060Z,14.40
2022-10-30T21:47:59.273Z,12.55
2022-10-30T21:50:26.527Z,11.52
2022-10-30T21:52:53.851Z,11.27
2022-10-30T21:55:21.220Z,11.50
2022-10-30T21:57:48.410Z,10.47
2022-10-30T22:00:16.076Z,10.02
2022-10-30T22:02:43.334Z,11.55
2022-10-30T22:05:10.682Z,10.32
2022-10-30T22:07:38.060Z,15.55
2022-10-30T22:10:06.084Z,10.83
2022-10-30T22:12:33.737Z,12.07
2022-10-30T22:15:01.090Z,11.60
2022-10-30T22:17:30.775Z,11.30
2022-10-30T22:20:01.153Z,11.50
2022-10-30T22:22:29.074Z,11.20
2022-10-30T22:24:56.489Z,12.95
2022-10-30T22:27:23.706Z,12.82
2022-10-30T22:29:51.013Z,13.52
2022-10-30T22:32:18.251Z,12.80
2022-10-30T22:34:45.577Z,13.30
2022-10-30T22:37:13.165Z,11.95
2022-10-30T22:39:40.650Z,12.35
2022-10-30T22:42:07.856Z,11.90
2022-10-30T22:44:35.598Z,10.63
2022-10-30T22:47:02.914Z,10.03
2022-10-30T22:49:30.254Z,9.23
2022-10-30T22:51:57.539Z,8.90
2022-10-30T22:54:24.970Z,9.40
2022-10-30T22:56:52.182Z,10.68
2022-10-30T22:59:19.468Z,9.87
2022-10-30T23:01:46.941Z,11.13
2022-10-30T23:04:16.175Z,10.10
2022-10-30T23:06:43.594Z,10.40
2022-10-30T23:09:18.723Z,11.60
2022-10-30T23:11:46.463Z,10.37
2022-10-30T23:14:15.389Z,10.55
2022-10-30T23:16:42.794Z,10.45
2022-10-30T23:19:11.018Z,9.48
2022-10-30T23:21:38.426Z,10.23
2022-10-30T23:24:06.153Z,8.53
2022-10-30T23:26:34.887Z,9.40
2022-10-30T23:29:02.192Z,9.60
2022-10-30T23:31:35.252Z,10.02
2022-10-30T23:34:03.904Z,9.70
2022-10-30T23:36:31.258Z,9.80
2022-10-30T23:39:03.522Z,12.93
2022-10-30T23:41:31.482Z,9.23
2022-10-30T23:43:59.910Z,10.43
2022-10-30T23:46:27.647Z,11.23
2022-10-30T23:48:55.042Z,10.17
2022-10-30T23:51:22.413Z,9.18
2022-10-30T23:53:49.797Z,9.18
2022-10-30T23:56:17.321Z,9.48
2022-10-30T23:58:45.430Z,9.32
